Grassy Butte, North Dakota
Current Conditions -  °F | °C
As of 2:56 PM on Wednesday 22 Oct 2014 (Local Time) from KDIK Reporting Station
Clear Clear  
Wind Chill: 62°   Ceiling: Unl
Heat Index: 62°   Visibility: 10mi
Dew Point: 35°   Wind: 23mph
Humidity: 37%   Direction: 280°W
Pressure: 29.85"   Gusts: 31mph
Location:  47.39°N, 103.25°W
Report Text: KDIK 222056Z AUTO 28020G27KT 10SM CLR 17/02 A2985 RMK AO2 PK WND 26029/2027 SLP105 T01670017 55001
Loading
Personal Weather Stations






























Interactive Weather Map
Tropical Storm Tracking
New forecast layout! Learn more

10-Day Weather Forecast

Advertisements
Track Severe Weather on mobile